Time;durP1;ratioP1;P1;durP2;ratioP2;P2;SDS_P1;SDS_P2;PMS_P1;PMS_P2;Temp;Humidity;BMP_temperature;BMP_pressure;BME280_temperature;BME280_humidity;BME280_pressure;Samples;Min_cycle;Max_cycle;Signal;HPM_P1;HPM_P2
2023/09/02 00:01:20;;;;;;;11.35;6.25;;;;;;;;;;6161483;23;20053;-84
2023/09/02 00:03:46;;;;;;;6.57;4.60;;;;;;;;;;6136298;23;20026;-84
2023/09/02 00:06:12;;;;;;;4.50;4.00;;;;;;;;;;6135130;23;20022;-83
2023/09/02 00:08:38;;;;;;;4.57;4.13;;;;;;;;;;6136744;23;20014;-83
2023/09/02 00:11:04;;;;;;;9.68;4.53;;;;;;;;;;6136956;23;20021;-83
2023/09/02 00:13:30;;;;;;;5.00;4.50;;;;;;;;;;6133168;23;20013;-83
2023/09/02 00:15:56;;;;;;;5.60;4.38;;;;;;;;;;6109603;23;20021;-83
2023/09/02 00:18:22;;;;;;;6.78;4.78;;;;;;;;;;6132407;23;20020;-91
2023/09/02 00:20:48;;;;;;;6.25;4.75;;;;;;;;;;6133255;23;20062;-95
2023/09/02 00:23:14;;;;;;;4.55;4.07;;;;;;;;;;6107749;23;20080;-90
2023/09/02 00:25:41;;;;;;;6.40;5.22;;;;;;;;;;6131517;23;20018;-93
2023/09/02 00:28:07;;;;;;;7.18;5.18;;;;;;;;;;6106741;23;20443;-83
2023/09/02 00:30:33;;;;;;;5.07;4.50;;;;;;;;;;6129615;23;20018;-83
2023/09/02 00:32:59;;;;;;;6.00;5.00;;;;;;;;;;6105839;23;20022;-83
2023/09/02 00:35:25;;;;;;;7.10;4.43;;;;;;;;;;6130119;23;20024;-83
2023/09/02 00:37:52;;;;;;;5.07;4.05;;;;;;;;;;6105486;23;20020;-83
2023/09/02 00:40:18;;;;;;;7.20;4.00;;;;;;;;;;6129923;23;20029;-83
2023/09/02 00:42:46;;;;;;;7.90;4.88;;;;;;;;;;6129500;23;20025;-84
2023/09/02 00:45:12;;;;;;;6.60;4.40;;;;;;;;;;6129206;23;20021;-83
2023/09/02 00:47:38;;;;;;;6.20;4.75;;;;;;;;;;6129664;23;20118;-84
2023/09/02 00:50:05;;;;;;;6.45;4.43;;;;;;;;;;6155894;23;20022;-83
2023/09/02 00:52:34;;;;;;;7.35;4.97;;;;;;;;;;6129512;23;20026;-83
2023/09/02 00:55:01;;;;;;;8.98;4.93;;;;;;;;;;6129141;23;20013;-84
2023/09/02 00:57:28;;;;;;;6.15;4.88;;;;;;;;;;6155884;23;20023;-83
2023/09/02 00:59:54;;;;;;;4.97;4.43;;;;;;;;;;6124753;23;20022;-84
2023/09/02 01:02:22;;;;;;;4.60;4.15;;;13.20;1.00;;;;;;6100487;23;20400;-83
2023/09/02 01:04:48;;;;;;;5.80;4.20;;;;;;;;;;6076039;23;20194;-83
2023/09/02 01:07:15;;;;;;;4.65;3.60;;;;;;;;;;6100385;23;20022;-84
2023/09/02 01:09:42;;;;;;;4.47;4.07;;;;;;;;;;6124966;23;20025;-84
2023/09/02 01:12:08;;;;;;;6.78;4.65;;;;;;;;;;6149168;23;20107;-83
2023/09/02 01:14:34;;;;;;;6.13;5.07;;;;;;;;;;6125950;23;20021;-83
2023/09/02 01:17:00;;;;;;;5.57;3.97;;;;;;;;;;6124421;23;20014;-84
2023/09/02 01:19:27;;;;;;;4.70;3.72;;;;;;;;;;6124373;23;20076;-84
2023/09/02 01:22:08;;;;;;;6.90;5.03;;;;;;;;;;6126222;23;20018;-83
2023/09/02 01:24:41;;;;;;;6.30;4.70;;;;;;;;;;6125691;23;20080;-83
2023/09/02 01:27:07;;;;;;;5.03;3.88;;;;;;;;;;6124436;23;20028;-84
2023/09/02 01:29:39;;;;;;;4.50;4.10;;;;;;;;;;6126209;23;20022;-83
2023/09/02 01:32:06;;;;;;;3.10;2.80;;;;;;;;;;6126125;23;20028;-83
2023/09/02 01:34:34;;;;;;;4.32;2.95;;;;;;;;;;6124265;23;20077;-84
2023/09/02 01:37:01;;;;;;;6.10;4.00;;;;;;;;;;6100154;23;20093;-84
2023/09/02 01:39:27;;;;;;;4.65;3.95;;;;;;;;;;6124435;23;20022;-83
2023/09/02 01:41:53;;;;;;;5.70;4.10;;;;;;;;;;6124084;23;20486;-83
2023/09/02 01:44:20;;;;;;;5.07;4.18;;;;;;;;;;6100044;23;20013;-84
2023/09/02 01:46:46;;;;;;;6.85;4.55;;;;;;;;;;6123810;23;20021;-84
2023/09/02 01:49:12;;;;;;;7.80;4.45;;;;;;;;;;6124138;23;20014;-84
2023/09/02 01:51:40;;;;;;;6.53;3.78;;;;;;;;;;6099724;23;20029;-84
2023/09/02 01:54:06;;;;;;;6.32;5.25;;;;;;;;;;6123589;23;20022;-84
2023/09/02 01:56:33;;;;;;;5.75;5.18;;;;;;;;;;6124005;23;20021;-85
2023/09/02 01:58:59;;;;;;;7.28;5.38;;;12.70;1.00;;;;;;6123981;23;20025;-84
2023/09/02 02:01:25;;;;;;;8.57;5.65;;;;;;;;;;6123877;23;20025;-84
2023/09/02 02:04:12;;;;;;;5.78;5.03;;;;;;;;;;6099597;23;20347;-84
2023/09/02 02:06:39;;;;;;;5.95;5.05;;;;;;;;;;6099102;23;20352;-83
2023/09/02 02:09:06;;;;;;;7.22;4.97;;;12.50;1.00;;;;;;6123899;23;20014;-83
2023/09/02 02:11:35;;;;;;;5.43;4.78;;;;;;;;;;6099607;23;20065;-83
2023/09/02 02:14:02;;;;;;;6.25;5.05;;;;;;;;;;6123782;23;20410;-83
2023/09/02 02:16:28;;;;;;;5.05;4.35;;;;;;;;;;6123975;23;20022;-83
2023/09/02 02:18:55;;;;;;;3.63;3.25;;;;;;;;;;6099470;23;20343;-83
2023/09/02 02:21:21;;;;;;;3.95;3.60;;;;;;;;;;6123702;23;20018;-84
2023/09/02 02:23:47;;;;;;;4.30;3.90;;;;;;;;;;6123744;23;20014;-84
2023/09/02 02:26:15;;;;;;;4.55;4.07;;;;;;;;;;6099259;23;20097;-84
2023/09/02 02:28:42;;;;;;;5.55;4.07;;;;;;;;;;6099929;23;20348;-84
2023/09/02 02:31:08;;;;;;;6.85;4.43;;;;;;;;;;6099971;23;20328;-84
2023/09/02 02:33:34;;;;;;;5.70;4.95;;;;;;;;;;6124593;23;20026;-84
2023/09/02 02:36:00;;;;;;;6.97;5.53;;;;;;;;;;6100239;23;20348;-83
2023/09/02 02:38:26;;;;;;;5.35;4.85;;;;;;;;;;6124289;23;20018;-84
2023/09/02 02:40:52;;;;;;;5.90;4.50;;;;;;;;;;6099423;23;20083;-84
2023/09/02 02:43:24;;;;;;;6.75;5.72;;;;;;;;;;6099312;23;20014;-84
2023/09/02 02:45:50;;;;;;;7.50;4.57;;;;;;;;;;6100350;23;20410;-83
2023/09/02 02:48:16;;;;;;;4.75;4.03;;;;;;;;;;6099307;23;20346;-83
2023/09/02 02:50:42;;;;;;;5.68;4.60;;;;;;;;;;6123571;23;20018;-83
2023/09/02 02:53:08;;;;;;;5.22;4.72;;;;;;;;;;6123137;23;20017;-84
2023/09/02 02:55:41;;;;;;;6.95;5.18;;;;;;;;;;6100189;23;20018;-82
2023/09/02 02:58:08;;;;;;;11.00;5.25;;;;;;;;;;6103400;23;20018;-83
2023/09/02 03:00:34;;;;;;;5.85;4.95;;;;;;;;;;6104287;23;20027;-83
2023/09/02 03:03:00;;;;;;;9.38;6.40;;;;;;;;;;6128705;23;20021;-83
2023/09/02 03:05:26;;;;;;;13.45;6.47;;;;;;;;;;6128542;23;20342;-83
2023/09/02 03:07:52;;;;;;;8.95;6.03;;;;;;;;;;6128441;23;20061;-83
2023/09/02 03:10:18;;;;;;;6.53;5.78;;;;;;;;;;6128554;23;20022;-83
2023/09/02 03:12:44;;;;;;;7.20;5.93;;;;;;;;;;6128578;23;20013;-83
2023/09/02 03:15:11;;;;;;;10.95;6.55;;;;;;;;;;6128217;23;20076;-83
2023/09/02 03:17:37;;;;;;;8.25;5.25;;;;;;;;;;6105082;23;20027;-83
2023/09/02 03:20:05;;;;;;;5.03;4.45;;;;;;;;;;6129493;23;20088;-83
2023/09/02 03:22:31;;;;;;;6.30;4.18;;;;;;;;;;6129261;23;20021;-83
2023/09/02 03:24:57;;;;;;;6.63;4.47;;;;;;;;;;6128604;23;20024;-84
2023/09/02 03:27:23;;;;;;;5.60;4.38;;;;;;;;;;6129913;23;20068;-83
2023/09/02 03:29:49;;;;;;;6.90;4.65;;;;;;;;;;6130951;23;20068;-83
2023/09/02 03:32:15;;;;;;;4.97;4.07;;;;;;;;;;6131003;23;20084;-83
2023/09/02 03:34:41;;;;;;;6.85;5.18;;;;;;;;;;6131096;23;20386;-83
2023/09/02 03:37:07;;;;;;;5.82;4.68;;;;;;;;;;6131211;23;20353;-83
2023/09/02 03:39:33;;;;;;;5.40;4.38;;;;;;;;;;6106673;23;20465;-83
2023/09/02 03:42:00;;;;;;;6.03;5.05;;;;;;;;;;6131197;23;20045;-83
2023/09/02 03:44:26;;;;;;;6.07;5.22;;;;;;;;;;6130802;23;20018;-84
2023/09/02 03:46:52;;;;;;;6.55;4.22;;;;;;;;;;6130603;23;20101;-83
2023/09/02 03:49:18;;;;;;;5.20;4.65;;;;;;;;;;6130370;23;20017;-83
2023/09/02 03:51:45;;;;;;;4.90;4.05;;;;;;;;;;6130058;23;20024;-83
2023/09/02 03:54:11;;;;;;;3.65;3.20;;;;;;;;;;6105347;23;20029;-83
2023/09/02 03:56:39;;;;;;;3.63;3.22;;;;;;;;;;6129796;23;20025;-83
2023/09/02 03:59:06;;;;;;;4.97;3.97;;;;;;;;;;6124802;23;20024;-83
2023/09/02 04:01:32;;;;;;;7.15;4.43;;;;;;;;;;6125423;23;20026;-83
2023/09/02 04:03:59;;;;;;;5.65;4.78;;;;;;;;;;6126877;23;20018;-83
2023/09/02 04:06:25;;;;;;;5.68;5.07;;;;;;;;;;6126820;23;20102;-84
2023/09/02 04:08:51;;;;;;;5.53;4.68;;;;;;;;;;6125736;23;20018;-84
2023/09/02 04:11:17;;;;;;;6.88;5.47;;;;;;;;;;6150948;23;20061;-84
2023/09/02 04:13:43;;;;;;;8.88;5.95;;;;;;;;;;6125858;23;20021;-83
2023/09/02 04:16:10;;;;;;;9.57;6.50;;;;;;;;;;6125778;23;20018;-83
2023/09/02 04:18:37;;;;;;;9.10;7.10;;;12.00;1.00;;;;;;6125643;23;20018;-83
2023/09/02 04:21:03;;;;;;;13.75;7.90;;;;;;;;;;6125259;23;20403;-84
2023/09/02 04:23:30;;;;;;;8.18;6.75;;;;;;;;;;6125087;23;20018;-84
2023/09/02 04:25:57;;;;;;;8.00;6.63;;;12.10;1.00;;;;;;6125004;23;20021;-84
2023/09/02 04:28:23;;;;;;;11.75;7.20;;;;;;;;;;6077293;23;20018;-84
2023/09/02 04:30:53;;;;;;;8.02;6.35;;;12.10;1.00;;;;;;6125532;23;20335;-84
2023/09/02 04:33:22;;;;;;;7.65;5.85;;;;;;;;;;6125195;23;20014;-84
2023/09/02 04:35:48;;;;;;;5.57;4.85;;;;;;;;;;6125047;23;20026;-84
2023/09/02 04:38:17;;;;;;;7.07;6.13;;;;;;;;;;6100583;23;20026;-84
2023/09/02 04:40:44;;;;;;;7.25;5.93;;;;;;;;;;6101423;23;20073;-83
2023/09/02 04:43:11;;;;;;;5.63;4.93;;;;;;;;;;6125187;23;20448;-83
2023/09/02 04:45:40;;;;;;;5.28;4.75;;;;;;;;;;6124847;23;20050;-84
2023/09/02 04:48:06;;;;;;;5.35;4.57;;;;;;;;;;6125125;23;20014;-83
2023/09/02 04:50:33;;;;;;;6.93;5.43;;;;;;;;;;6125012;23;20371;-84
2023/09/02 04:52:59;;;;;;;8.82;5.07;;;;;;;;;;6124530;23;20014;-83
2023/09/02 04:55:26;;;;;;;7.47;6.10;;;;;;;;;;6124641;23;20467;-84
2023/09/02 04:57:53;;;;;;;7.53;5.75;;;;;;;;;;6101445;23;20018;-85
2023/09/02 05:00:19;;;;;;;8.07;6.22;;;;;;;;;;6078283;23;20026;-84
2023/09/02 05:02:46;;;;;;;12.27;5.75;;;;;;;;;;6076862;23;20014;-84
2023/09/02 05:05:17;;;;;;;5.85;4.95;;;12.10;1.00;;;;;;6100710;23;20387;-84
2023/09/02 05:07:43;;;;;;;6.60;5.13;;;;;;;;;;6051972;23;20018;-84
2023/09/02 05:10:09;;;;;;;7.75;6.47;;;;;;;;;;6100681;23;20073;-84
2023/09/02 05:12:36;;;;;;;7.40;6.05;;;;;;;;;;6052683;23;20018;-84
2023/09/02 05:15:03;;;;;;;6.93;5.63;;;;;;;;;;6076862;23;20022;-83
2023/09/02 05:17:31;;;;;;;7.60;5.80;;;;;;;;;;6076126;23;20101;-84
2023/09/02 05:19:57;;;;;;;6.15;5.22;;;;;;;;;;6102711;23;20028;-91
2023/09/02 05:22:23;;;;;;;7.47;5.78;;;;;;;;;;6079857;23;20455;-89
2023/09/02 05:24:49;;;;;;;6.88;6.10;;;;;;;;;;6101849;23;20018;-87
2023/09/02 05:27:15;;;;;;;9.82;6.07;;;;;;;;;;6079519;23;20024;-85
2023/09/02 05:29:41;;;;;;;8.30;6.72;;;;;;;;;;6105374;23;20041;-85
2023/09/02 05:32:08;;;;;;;9.15;6.43;;;;;;;;;;6081568;23;20081;-85
2023/09/02 05:34:35;;;;;;;6.85;6.15;;;;;;;;;;6104181;23;20022;-84
2023/09/02 05:37:02;;;;;;;9.52;6.75;;;;;;;;;;6104145;23;20021;-84
2023/09/02 05:39:28;;;;;;;10.05;6.75;;;;;;;;;;6061556;23;20014;-84
2023/09/02 05:41:54;;;;;;;10.95;7.65;;;;;;;;;;6082350;23;20112;-84
2023/09/02 05:44:20;;;;;;;9.80;6.63;;;;;;;;;;6083225;23;20017;-87
2023/09/02 05:46:46;;;;;;;7.53;6.72;;;;;;;;;;6053018;23;20021;-95
2023/09/02 05:49:13;;;;;;;9.27;7.07;;;;;;;;;;6053148;23;20022;-84
2023/09/02 05:51:39;;;;;;;8.40;5.90;;;;;;;;;;6052128;23;20399;-84
2023/09/02 05:54:09;;;;;;;8.98;6.35;;;;;;;;;;6075409;23;20018;-84
2023/09/02 05:56:38;;;;;;;9.50;6.90;;;;;;;;;;6052518;23;20022;-84
2023/09/02 05:59:05;;;;;;;8.95;6.75;;;;;;;;;;6099643;23;20018;-83
2023/09/02 06:01:31;;;;;;;8.98;6.90;;;;;;;;;;6051754;23;20029;-85
2023/09/02 06:03:58;;;;;;;10.60;7.60;;;;;;;;;;6075299;23;20021;-84
2023/09/02 06:06:24;;;;;;;9.90;7.30;;;;;;;;;;6051601;23;20044;-84
2023/09/02 06:08:50;;;;;;;10.85;8.63;;;;;;;;;;6099444;23;20066;-84
2023/09/02 06:11:16;;;;;;;12.93;7.80;;;;;;;;;;6075547;23;20100;-83
2023/09/02 06:13:43;;;;;;;16.85;9.07;;;;;;;;;;6075250;23;20065;-84
2023/09/02 06:16:09;;;;;;;14.50;9.27;;;;;;;;;;6099491;23;20041;-84
2023/09/02 06:18:35;;;;;;;10.75;8.43;;;12.60;1.00;;;;;;6051843;23;20451;-84
2023/09/02 06:21:08;;;;;;;9.98;8.38;;;;;;;;;;6075434;23;20022;-84
2023/09/02 06:23:35;;;;;;;10.23;7.70;;;;;;;;;;6075226;23;20034;-84
2023/09/02 06:26:01;;;;;;;12.90;7.80;;;;;;;;;;6051584;23;20029;-83
2023/09/02 06:28:28;;;;;;;13.35;8.52;;;12.90;1.00;;;;;;6075371;23;20441;-85
2023/09/02 06:30:54;;;;;;;14.82;9.10;;;;;;;;;;6099338;23;20029;-85
2023/09/02 06:33:22;;;;;;;17.05;9.80;;;13.00;3.00;;;;;;6100010;23;20018;-84
2023/09/02 06:35:51;;;;;;;13.25;9.88;;;;;;;;;;6075073;23;20145;-85
2023/09/02 06:38:17;;;;;;;13.27;9.30;;;13.30;1.90;;;;;;6099053;23;20070;-84
2023/09/02 06:40:44;;;;;;;15.80;10.82;;;;;;;;;;6099578;23;20025;-84
2023/09/02 06:43:10;;;;;;;12.57;9.32;;;;;;;;;;6075116;23;20096;-85
2023/09/02 06:45:37;;;;;;;14.93;9.68;;;;;;;;;;6075170;23;20026;-84
2023/09/02 06:48:03;;;;;;;13.35;9.55;;;;;;;;;;6052055;23;20096;-84
2023/09/02 06:50:29;;;;;;;14.02;9.50;;;;;;;;;;6076433;23;20453;-85
2023/09/02 06:52:55;;;;;;;16.33;12.23;;;;;;;;;;6053066;23;20019;-84
2023/09/02 06:55:21;;;;;;;15.40;10.10;;;;;;;;;;6099829;23;20030;-84
2023/09/02 06:57:47;;;;;;;13.73;10.32;;;;;;;;;;6076862;23;20049;-84
2023/09/02 07:00:13;;;;;;;13.10;10.25;;;;;;;;;;6077621;23;20028;-84
2023/09/02 07:02:40;;;;;;;15.30;10.40;;;;;;;;;;6104606;23;20017;-85
2023/09/02 07:05:06;;;;;;;15.10;10.50;;;;;;;;;;6128556;23;20454;-85
2023/09/02 07:07:33;;;;;;;13.68;10.40;;;;;;;;;;6104622;23;20029;-84
2023/09/02 07:09:59;;;;;;;12.68;9.32;;;;;;;;;;6129605;23;20064;-85
2023/09/02 07:12:25;;;;;;;13.75;10.35;;;;;;;;;;6105299;23;20021;-85
2023/09/02 07:14:51;;;;;;;15.05;10.35;;;;;;;;;;6129156;23;20075;-85
2023/09/02 07:17:17;;;;;;;13.45;9.20;;;;;;;;;;6080468;23;20072;-85
2023/09/02 07:19:43;;;;;;;12.82;8.60;;;;;;;;;;6104348;23;20017;-84
2023/09/02 07:22:09;;;;;;;11.50;7.93;;;;;;;;;;6104054;23;20442;-84
2023/09/02 07:24:35;;;;;;;12.32;8.95;;;;;;;;;;6128044;23;20013;-85
2023/09/02 07:27:01;;;;;;;14.00;8.30;;;;;;;;;;6104278;23;20018;-85
2023/09/02 07:29:28;;;;;;;11.10;7.45;;;14.90;25.50;;;;;;6103888;23;20104;-86
2023/09/02 07:31:54;;;;;;;10.00;7.50;;;;;;;;;;6104372;23;20026;-86
2023/09/02 07:34:20;;;;;;;13.00;7.93;;;;;;;;;;6104423;23;20049;-85
2023/09/02 07:36:46;;;;;;;14.45;8.63;;;15.40;24.40;;;;;;6128868;23;20026;-85
2023/09/02 07:39:16;;;;;;;16.33;8.18;;;;;;;;;;6104841;23;20013;-85
2023/09/02 07:41:42;;;;;;;11.30;8.00;;;15.90;24.30;;;;;;6105879;23;20465;-85
2023/09/02 07:44:09;;;;;;;10.88;7.47;;;15.60;12.30;;;;;;6128972;23;20447;-86
2023/09/02 07:46:41;;;;;;;11.70;7.40;;;;;;;;;;6084150;23;20346;-85
2023/09/02 07:49:07;;;;;;;11.63;7.15;;;;;;;;;;6104933;23;20085;-85
2023/09/02 07:51:33;;;;;;;10.95;8.25;;;;;;;;;;6104595;23;20017;-85
2023/09/02 07:53:59;;;;;;;12.65;7.07;;;;;;;;;;6104775;23;20105;-85
2023/09/02 07:56:25;;;;;;;13.00;7.28;;;16.40;19.10;;;;;;6107162;23;20018;-86
2023/09/02 07:58:51;;;;;;;10.63;8.32;;;16.30;2.80;;;;;;6128373;23;20021;-86
2023/09/02 08:01:17;;;;;;;12.52;7.72;;;16.30;17.80;;;;;;6104933;23;20021;-86
2023/09/02 08:03:43;;;;;;;8.23;7.05;;;;;;;;;;6103776;23;20010;-84
2023/09/02 08:06:09;;;;;;;8.68;6.93;;;;;;;;;;6103917;23;20032;-85
2023/09/02 08:08:35;;;;;;;11.48;6.60;;;;;;;;;;6104164;23;20021;-86
2023/09/02 08:11:05;;;;;;;10.95;7.47;;;;;;;;;;6104544;23;20024;-85
2023/09/02 08:13:32;;;;;;;10.38;7.57;;;16.60;11.10;;;;;;6105068;23;20059;-86
2023/09/02 08:15:58;;;;;;;7.95;6.30;;;;;;;;;;6106175;23;20025;-86
2023/09/02 08:18:24;;;;;;;13.77;7.35;;;;;;;;;;6106306;23;20013;-85
2023/09/02 08:20:50;;;;;;;10.40;6.78;;;;;;;;;;6130384;23;20024;-86
2023/09/02 08:23:16;;;;;;;12.25;7.90;;;;;;;;;;6105345;23;20022;-86
2023/09/02 08:25:42;;;;;;;10.35;6.32;;;;;;;;;;6130126;23;20017;-86
2023/09/02 08:28:09;;;;;;;14.48;7.40;;;;;;;;;;6105728;23;20152;-86
2023/09/02 08:30:35;;;;;;;7.68;6.53;;;;;;;;;;6105682;23;20528;-85
2023/09/02 08:33:03;;;;;;;8.18;6.40;;;17.20;1.00;;;;;;6130186;23;20312;-86
2023/09/02 08:35:36;;;;;;;13.63;6.15;;;17.20;1.00;;;;;;6105775;23;20024;-85
2023/09/02 08:38:05;;;;;;;12.57;6.40;;;17.70;1.00;;;;;;6105558;23;20028;-85
2023/09/02 08:40:31;;;;;;;5.63;4.88;;;;;;;;;;6129563;23;20105;-85
2023/09/02 08:43:01;;;;;;;8.60;4.85;;;17.60;1.00;;;;;;6105183;23;20018;-86
2023/09/02 08:45:28;;;;;;;7.25;5.18;;;17.60;1.00;;;;;;6129596;23;20100;-86
2023/09/02 08:48:00;;;;;;;8.07;5.00;;;17.70;1.00;;;;;;6129408;23;20022;-85
2023/09/02 08:50:30;;;;;;;12.43;5.18;;;17.90;1.00;;;;;;6129517;23;20406;-86
2023/09/02 08:52:57;;;;;;;7.35;5.63;;;18.00;1.00;;;;;;6081162;23;20009;-85
2023/09/02 08:55:23;;;;;;;6.30;4.90;;;;;;;;;;6080508;23;20068;-85
2023/09/02 08:57:51;;;;;;;6.47;4.10;;;17.90;1.00;;;;;;6103232;23;20354;-84
2023/09/02 09:00:17;;;;;;;6.63;4.72;;;;;;;;;;6102651;23;20097;-85
2023/09/02 09:02:44;;;;;;;8.30;4.93;;;;;;;;;;6103036;23;20036;-85
2023/09/02 09:05:12;;;;;;;7.28;5.22;;;18.30;1.00;;;;;;6103057;23;20036;-84
2023/09/02 09:07:39;;;;;;;5.90;4.95;;;18.20;1.00;;;;;;6128806;23;20060;-85
2023/09/02 09:10:09;;;;;;;8.10;5.55;;;18.30;1.00;;;;;;6129705;23;20092;-85
2023/09/02 09:12:36;;;;;;;10.65;6.10;;;;;;;;;;6104727;23;20354;-85
2023/09/02 09:15:02;;;;;;;6.22;4.53;;;18.40;1.00;;;;;;6130171;23;20093;-85
2023/09/02 09:17:30;;;;;;;6.05;4.20;;;18.40;1.00;;;;;;6105466;23;20030;-85
2023/09/02 09:19:59;;;;;;;10.57;4.82;;;20.10;1.00;;;;;;6155859;23;20464;-85
2023/09/02 09:22:25;;;;;;;8.27;5.18;;;;;;;;;;6155906;23;20023;-85
2023/09/02 09:24:51;;;;;;;7.90;5.53;;;;;;;;;;6154739;23;20018;-84
2023/09/02 09:27:18;;;;;;;8.10;5.57;;;;;;;;;;6105011;23;20105;-85
2023/09/02 09:29:44;;;;;;;9.27;4.80;;;18.70;1.00;;;;;;6129711;23;20025;-84
2023/09/02 09:32:18;;;;;;;6.88;5.13;;;18.90;1.00;;;;;;6104612;23;20080;-84
2023/09/02 09:34:44;;;;;;;8.52;5.40;;;18.60;1.00;;;;;;6129204;23;20030;-84
2023/09/02 09:37:11;;;;;;;6.88;5.38;;;;;;;;;;6104729;23;20018;-84
2023/09/02 09:39:46;;;;;;;7.88;5.50;;;19.10;1.00;;;;;;6129166;23;20044;-84
2023/09/02 09:42:14;;;;;;;5.85;5.25;;;19.00;1.00;;;;;;6080724;23;20104;-85
2023/09/02 09:44:57;;;;;;;10.50;5.82;;;18.90;1.00;;;;;;6129316;23;20060;-84
2023/09/02 09:47:25;;;;;;;6.70;5.75;;;19.00;1.00;;;;;;6129419;23;20451;-84
2023/09/02 09:49:52;;;;;;;9.07;5.68;;;;;;;;;;6104542;23;20462;-84
2023/09/02 09:52:19;;;;;;;8.30;6.03;;;19.30;1.00;;;;;;6104391;23;20456;-84
2023/09/02 09:54:45;;;;;;;6.82;5.70;;;;;;;;;;6104150;23;20478;-84
2023/09/02 09:57:15;;;;;;;9.80;5.57;;;19.50;1.00;;;;;;6104466;23;20075;-85
2023/09/02 09:59:51;;;;;;;7.38;6.07;;;19.60;1.00;;;;;;6128619;23;20021;-84
2023/09/02 10:02:19;;;;;;;8.05;5.43;;;19.50;1.00;;;;;;6104754;23;20175;-84
2023/09/02 10:04:54;;;;;;;10.50;6.15;;;19.50;1.00;;;;;;6128638;23;20061;-85
2023/09/02 10:07:24;;;;;;;8.10;5.63;;;19.40;1.00;;;;;;6104428;23;20056;-84
2023/09/02 10:09:51;;;;;;;8.20;5.47;;;;;;;;;;6104795;23;20014;-85
2023/09/02 10:12:17;;;;;;;7.35;4.97;;;;;;;;;;6128629;23;20029;-85
2023/09/02 10:14:44;;;;;;;11.70;5.80;;;19.60;1.00;;;;;;6129899;23;20405;-85
2023/09/02 10:17:11;;;;;;;6.78;5.88;;;;;;;;;;6104449;23;20029;-85
2023/09/02 10:19:37;;;;;;;11.50;6.63;;;;;;;;;;6104406;23;20013;-85
2023/09/02 10:22:04;;;;;;;8.50;5.93;;;19.70;1.00;;;;;;6104834;23;20025;-85
2023/09/02 10:24:34;;;;;;;9.07;6.43;;;19.40;1.00;;;;;;6128749;23;20014;-85
2023/09/02 10:27:03;;;;;;;13.23;6.18;;;19.40;1.00;;;;;;6104033;23;20455;-85
2023/09/02 10:29:35;;;;;;;10.98;6.47;;;19.50;1.00;;;;;;6104189;23;20446;-85
2023/09/02 10:32:09;;;;;;;10.27;6.32;;;19.60;1.00;;;;;;6128836;23;20026;-85
2023/09/02 10:34:44;;;;;;;10.52;7.93;;;19.60;1.00;;;;;;6104398;23;20014;-83
2023/09/02 10:37:14;;;;;;;14.48;6.63;;;19.70;1.00;;;;;;6104508;23;20338;-86
2023/09/02 10:40:06;;;;;;;9.73;6.65;;;19.80;1.00;;;;;;6081418;23;20100;-86
2023/09/02 10:42:34;;;;;;;9.82;6.70;;;19.80;1.00;;;;;;6155545;23;20013;-86
2023/09/02 10:45:01;;;;;;;8.90;6.85;;;;;;;;;;6129614;23;20331;-86
2023/09/02 10:47:27;;;;;;;10.38;6.75;;;19.90;1.00;;;;;;6129131;23;20477;-86
2023/09/02 10:49:54;;;;;;;9.82;5.95;;;20.00;1.00;;;;;;6129405;23;20080;-86
2023/09/02 10:52:20;;;;;;;6.85;5.60;;;19.70;1.00;;;;;;6105106;23;20025;-85
2023/09/02 10:55:06;;;;;;;13.18;5.97;;;20.10;1.00;;;;;;6155176;23;20088;-87
2023/09/02 10:57:43;;;;;;;10.40;6.05;;;20.20;1.00;;;;;;6104474;23;20024;-86
2023/09/02 11:00:20;;;;;;;7.57;5.35;;;20.40;1.00;;;;;;6128754;23;20052;-85
2023/09/02 11:02:54;;;;;;;8.70;4.90;;;20.40;1.00;;;;;;6104610;23;20024;-86
2023/09/02 11:05:25;;;;;;;9.43;4.75;;;20.40;1.00;;;;;;6104529;23;20026;-86
2023/09/02 11:07:53;;;;;;;7.93;6.90;;;20.30;1.00;;;;;;6104472;23;20343;-86
2023/09/02 11:10:42;;;;;;;5.53;4.35;;;20.50;1.00;;;;;;6105541;23;20018;-87
2023/09/02 11:13:09;;;;;;;5.40;4.25;;;;;;;;;;6155547;23;20087;-85
2023/09/02 11:15:36;;;;;;;4.78;4.35;;;20.60;1.00;;;;;;6134026;23;20092;-88
2023/09/02 11:18:39;;;;;;;5.53;4.45;;;20.70;1.00;;;;;;6110944;23;20514;-85
2023/09/02 11:21:05;;;;;;;6.50;4.68;;;;;;;;;;6133446;23;20021;-86
2023/09/02 11:23:35;;;;;;;8.57;4.97;;;;;;;;;;6132915;23;20362;-87
2023/09/02 11:26:07;;;;;;;5.03;4.03;;;20.80;1.00;;;;;;6132888;23;20017;-91
2023/09/02 11:28:36;;;;;;;8.90;5.32;;;;;;;;;;6109895;23;20014;-88
2023/09/02 11:31:12;;;;;;;5.85;4.28;;;21.00;1.00;;;;;;6110676;23;20461;-91
2023/09/02 11:33:40;;;;;;;4.63;4.07;;;21.00;1.00;;;;;;6160038;23;20096;-85
2023/09/02 11:36:12;;;;;;;8.48;3.63;;;21.10;1.00;;;;;;6106979;23;20484;-89
2023/09/02 11:38:39;;;;;;;4.93;4.05;;;;;;;;;;6106926;23;20014;-94
2023/09/02 11:41:05;;;;;;;5.40;4.25;;;;;;;;;;6107280;23;20354;-91
2023/09/02 11:43:32;;;;;;;4.80;3.78;;;20.80;1.00;;;;;;6107803;23;20041;-87
2023/09/02 11:45:59;;;;;;;9.73;4.07;;;21.10;1.00;;;;;;6109801;23;20028;-95
2023/09/02 11:48:27;;;;;;;6.93;4.30;;;23.50;1.00;;;;;;6110753;23;20025;-87
2023/09/02 11:50:57;;;;;;;4.30;3.88;;;21.00;1.00;;;;;;6112474;23;20343;-94
2023/09/02 11:53:35;;;;;;;4.53;3.20;;;21.10;1.00;;;;;;6137154;23;20024;-93
2023/09/02 11:56:00;;;;;;;6.25;3.15;;;21.30;1.00;;;;;;6115341;23;20025;-92
2023/09/02 11:58:26;;;;;;;3.53;3.17;;;21.30;1.00;;;;;;6088532;23;20114;-92
2023/09/02 12:00:52;;;;;;;4.47;3.60;;;21.20;1.00;;;;;;6107887;23;20025;-89
2023/09/02 12:03:27;;;;;;;4.05;3.65;;;21.20;1.00;;;;;;6106581;23;20029;-91
2023/09/02 12:05:58;;;;;;;5.40;3.38;;;21.20;1.00;;;;;;6082312;23;20022;-86
2023/09/02 12:08:31;;;;;;;9.63;3.97;;;21.60;1.00;;;;;;6131084;23;20352;-94
2023/09/02 12:11:04;;;;;;;4.78;3.35;;;21.40;1.00;;;;;;6081472;23;20029;-96
2023/09/02 12:13:31;;;;;;;4.07;3.67;;;21.40;1.00;;;;;;6057232;23;20018;-91
2023/09/02 12:15:57;;;;;;;5.30;3.63;;;;;;;;;;6104788;23;20459;-87
2023/09/02 12:18:26;;;;;;;5.47;3.25;;;21.60;1.00;;;;;;6055688;23;20018;-91
2023/09/02 12:20:52;;;;;;;5.55;3.20;;;21.60;1.00;;;;;;6057273;23;20049;-91
2023/09/02 12:23:18;;;;;;;4.50;3.58;;;;;;;;;;6079593;23;20400;-85
2023/09/02 12:26:08;;;;;;;3.92;3.30;;;21.30;1.00;;;;;;6103466;23;20029;-90
2023/09/02 12:28:34;;;;;;;4.50;3.10;;;;;;;;;;6129328;23;20053;-92
2023/09/02 12:31:03;;;;;;;3.75;2.90;;;21.30;1.00;;;;;;6055209;23;20025;-91
2023/09/02 12:33:29;;;;;;;4.40;3.22;;;21.50;1.00;;;;;;6054853;23;20026;-92
2023/09/02 12:35:54;;;;;;;3.13;2.83;;;21.70;1.00;;;;;;6103541;23;20351;-93
2023/09/02 12:38:20;;;;;;;4.85;3.63;;;21.60;1.00;;;;;;6055617;23;20097;-87
2023/09/02 12:40:54;;;;;;;3.88;3.20;;;21.40;1.00;;;;;;6103185;23;20017;-93
2023/09/02 12:43:28;;;;;;;;;;;22.30;1.00;;;;;;6079660;23;20029;-87
2023/09/02 12:45:55;;;;;;;6.00;2.50;;;21.90;1.00;;;;;;6128841;23;19953;-86
2023/09/02 12:48:21;;;;;;;5.55;3.03;;;21.90;1.00;;;;;;6079180;23;20018;-92
2023/09/02 12:50:46;;;;;;;5.40;3.00;;;21.90;1.00;;;;;;6128936;23;20061;-95
2023/09/02 12:53:13;;;;;;;5.43;3.60;;;21.80;1.00;;;;;;6076377;23;20018;-85
2023/09/02 12:55:44;;;;;;;3.78;2.80;;;21.90;1.00;;;;;;6100622;23;20475;-86
2023/09/02 12:58:10;;;;;;;7.93;3.05;;;21.90;1.00;;;;;;6100388;23;20026;-85
2023/09/02 13:00:37;;;;;;;5.65;4.20;;;;;;;;;;6076182;23;20022;-86
2023/09/02 13:03:03;;;;;;;5.30;3.40;;;21.90;1.00;;;;;;6100495;23;20447;-87
2023/09/02 13:05:29;;;;;;;5.57;2.75;;;21.80;1.00;;;;;;6076691;23;20014;-87
2023/09/02 13:07:54;;;;;;;5.57;3.20;;;21.80;1.00;;;;;;6126601;23;20021;-89
2023/09/02 13:10:21;;;;;;;3.72;2.35;;;;;;;;;;6100512;23;20049;-85
2023/09/02 13:12:47;;;;;;;4.00;2.63;;;21.60;1.00;;;;;;6100154;23;20423;-86
2023/09/02 13:15:14;;;;;;;4.63;2.45;;;21.80;1.00;;;;;;6100110;23;20451;-86
2023/09/02 13:17:40;;;;;;;8.23;2.58;;;22.00;1.00;;;;;;6100031;23;20022;-85
2023/09/02 13:20:12;;;;;;;3.38;2.63;;;21.90;1.00;;;;;;6076069;23;20037;-86
2023/09/02 13:22:41;;;;;;;2.58;2.03;;;21.50;1.00;;;;;;6077070;23;20014;-85
2023/09/02 13:25:09;;;;;;;7.38;2.35;;;22.00;1.00;;;;;;6076181;23;20069;-85
2023/09/02 13:27:35;;;;;;;4.30;2.40;;;;;;;;;;6100617;23;20053;-86
2023/09/02 13:30:01;;;;;;;5.05;1.80;;;22.10;1.00;;;;;;6077488;23;20045;-84
2023/09/02 13:32:27;;;;;;;3.80;2.00;;;;;;;;;;6052373;23;20028;-86
2023/09/02 13:35:15;;;;;;;2.78;2.30;;;22.30;1.00;;;;;;6053028;23;20025;-85
2023/09/02 13:37:43;;;;;;;3.92;2.50;;;22.30;1.00;;;;;;6076941;23;20022;-85
2023/09/02 13:40:26;;;;;;;2.42;1.92;;;22.50;1.00;;;;;;6076988;23;20014;-85
2023/09/02 13:42:53;;;;;;;4.47;1.85;;;22.70;1.00;;;;;;6076832;23;20021;-87
2023/09/02 13:45:29;;;;;;;2.70;2.33;;;22.40;1.00;;;;;;6029203;23;20018;-86
2023/09/02 13:47:55;;;;;;;2.38;2.17;;;22.40;1.00;;;;;;6075341;23;20043;-86
2023/09/02 13:50:21;;;;;;;3.60;2.25;;;;;;;;;;6075670;23;20014;-86
2023/09/02 13:52:52;;;;;;;2.40;1.90;;;22.80;1.00;;;;;;6052987;23;20022;-86
2023/09/02 13:55:23;;;;;;;3.63;1.70;;;22.80;1.00;;;;;;6099516;23;20021;-87
2023/09/02 13:57:50;;;;;;;2.83;2.03;;;22.60;1.00;;;;;;6051183;23;20056;-84
2023/09/02 14:00:31;;;;;;;4.70;1.85;;;22.90;1.00;;;;;;6076723;23;20091;-85
2023/09/02 14:03:00;;;;;;;2.10;1.90;;;22.70;1.00;;;;;;6101130;23;20029;-86